sensor_id;sensor_type;location;lat;lon;timestamp;pressure;altitude;pressure_sealevel;temperature;humidity
41218;BME280;26950;50.960;7.138;2023-07-31T00:00:02;100280.44;;;22.04;64.80
41218;BME280;26950;50.960;7.138;2023-07-31T00:02:29;100283.13;;;22.40;63.32
41218;BME280;26950;50.960;7.138;2023-07-31T00:04:55;100272.66;;;21.14;66.87
41218;BME280;26950;50.960;7.138;2023-07-31T00:07:21;100267.03;;;20.37;70.03
41218;BME280;26950;50.960;7.138;2023-07-31T00:09:48;100266.50;;;21.11;68.71
41218;BME280;26950;50.960;7.138;2023-07-31T00:12:15;100267.19;;;21.99;64.39
41218;BME280;26950;50.960;7.138;2023-07-31T00:14:42;100266.19;;;22.41;62.62
41218;BME280;26950;50.960;7.138;2023-07-31T00:17:08;100267.63;;;20.99;67.90
41218;BME280;26950;50.960;7.138;2023-07-31T00:19:34;100268.91;;;21.23;66.71
41218;BME280;26950;50.960;7.138;2023-07-31T00:22:00;100270.09;;;21.10;67.33
41218;BME280;26950;50.960;7.138;2023-07-31T00:24:27;100263.88;;;22.59;62.04
41218;BME280;26950;50.960;7.138;2023-07-31T00:26:53;100273.22;;;22.43;62.15
41218;BME280;26950;50.960;7.138;2023-07-31T00:29:21;100273.94;;;22.50;62.30
41218;BME280;26950;50.960;7.138;2023-07-31T00:31:47;100267.00;;;22.75;61.28
41218;BME280;26950;50.960;7.138;2023-07-31T00:34:13;100265.84;;;21.43;65.83
41218;BME280;26950;50.960;7.138;2023-07-31T00:36:39;100261.09;;;22.64;61.94
41218;BME280;26950;50.960;7.138;2023-07-31T00:39:06;100269.16;;;21.11;67.43
41218;BME280;26950;50.960;7.138;2023-07-31T00:41:32;100268.03;;;22.01;64.03
41218;BME280;26950;50.960;7.138;2023-07-31T00:43:58;100267.47;;;21.87;64.44
41218;BME280;26950;50.960;7.138;2023-07-31T00:46:26;100258.16;;;21.68;65.34
41218;BME280;26950;50.960;7.138;2023-07-31T00:48:52;100251.09;;;22.71;61.63
41218;BME280;26950;50.960;7.138;2023-07-31T00:51:19;100255.97;;;22.55;61.98
41218;BME280;26950;50.960;7.138;2023-07-31T00:53:45;100250.59;;;21.48;65.14
41218;BME280;26950;50.960;7.138;2023-07-31T00:56:13;100246.31;;;21.41;66.62
41218;BME280;26950;50.960;7.138;2023-07-31T00:58:39;100247.66;;;21.60;64.81
41218;BME280;26950;50.960;7.138;2023-07-31T01:01:05;100246.44;;;21.75;63.79
41218;BME280;26950;50.960;7.138;2023-07-31T01:03:33;100236.75;;;20.89;67.79
41218;BME280;26950;50.960;7.138;2023-07-31T01:06:03;100242.44;;;21.54;65.24
41218;BME280;26950;50.960;7.138;2023-07-31T01:08:32;100238.84;;;21.57;64.53
41218;BME280;26950;50.960;7.138;2023-07-31T01:11:00;100235.91;;;21.27;65.04
41218;BME280;26950;50.960;7.138;2023-07-31T01:13:27;100226.59;;;21.05;65.83
41218;BME280;26950;50.960;7.138;2023-07-31T01:15:54;100226.22;;;21.23;65.00
41218;BME280;26950;50.960;7.138;2023-07-31T01:18:20;100217.19;;;21.30;65.39
41218;BME280;26950;50.960;7.138;2023-07-31T01:20:50;100218.13;;;21.66;63.77
41218;BME280;26950;50.960;7.138;2023-07-31T01:23:27;100219.25;;;21.16;64.99
41218;BME280;26950;50.960;7.138;2023-07-31T01:26:02;100226.38;;;21.94;62.81
41218;BME280;26950;50.960;7.138;2023-07-31T01:28:30;100236.72;;;21.71;62.77
41218;BME280;26950;50.960;7.138;2023-07-31T01:30:58;100224.03;;;22.16;61.00
41218;BME280;26950;50.960;7.138;2023-07-31T01:33:26;100233.31;;;21.24;65.17
41218;BME280;26950;50.960;7.138;2023-07-31T01:35:52;100228.84;;;22.02;61.69
41218;BME280;26950;50.960;7.138;2023-07-31T01:38:20;100228.91;;;21.21;64.55
41218;BME280;26950;50.960;7.138;2023-07-31T01:40:49;100232.31;;;21.70;62.37
41218;BME280;26950;50.960;7.138;2023-07-31T01:43:18;100232.69;;;21.53;63.23
41218;BME280;26950;50.960;7.138;2023-07-31T01:45:44;100231.25;;;21.38;63.70
41218;BME280;26950;50.960;7.138;2023-07-31T01:48:10;100226.19;;;20.83;64.97
41218;BME280;26950;50.960;7.138;2023-07-31T01:50:37;100222.63;;;21.24;64.31
41218;BME280;26950;50.960;7.138;2023-07-31T01:53:03;100221.28;;;21.05;64.32
41218;BME280;26950;50.960;7.138;2023-07-31T01:55:29;100219.34;;;21.13;64.13
41218;BME280;26950;50.960;7.138;2023-07-31T01:57:55;100217.00;;;21.39;63.48
41218;BME280;26950;50.960;7.138;2023-07-31T02:00:23;100214.84;;;21.55;62.65
41218;BME280;26950;50.960;7.138;2023-07-31T02:02:48;100218.50;;;20.19;68.01
41218;BME280;26950;50.960;7.138;2023-07-31T02:05:15;100215.81;;;21.11;64.24
41218;BME280;26950;50.960;7.138;2023-07-31T02:07:41;100209.41;;;21.95;61.02
41218;BME280;26950;50.960;7.138;2023-07-31T02:10:07;100211.31;;;21.90;60.79
41218;BME280;26950;50.960;7.138;2023-07-31T02:12:34;100211.84;;;22.40;59.34
41218;BME280;26950;50.960;7.138;2023-07-31T02:15:00;100208.72;;;22.23;60.52
41218;BME280;26950;50.960;7.138;2023-07-31T02:17:27;100217.41;;;20.78;64.07
41218;BME280;26950;50.960;7.138;2023-07-31T02:19:54;100211.41;;;21.50;63.14
41218;BME280;26950;50.960;7.138;2023-07-31T02:22:20;100203.66;;;20.97;65.15
41218;BME280;26950;50.960;7.138;2023-07-31T02:24:47;100210.03;;;21.32;63.38
41218;BME280;26950;50.960;7.138;2023-07-31T02:27:13;100195.59;;;21.78;62.14
41218;BME280;26950;50.960;7.138;2023-07-31T02:29:39;100192.53;;;21.19;64.84
41218;BME280;26950;50.960;7.138;2023-07-31T02:32:06;100183.84;;;22.21;60.15
41218;BME280;26950;50.960;7.138;2023-07-31T02:34:33;100187.13;;;20.80;65.05
41218;BME280;26950;50.960;7.138;2023-07-31T02:37:00;100190.94;;;21.49;62.59
41218;BME280;26950;50.960;7.138;2023-07-31T02:39:26;100175.66;;;22.27;60.75
41218;BME280;26950;50.960;7.138;2023-07-31T02:41:52;100179.19;;;23.21;57.37
41218;BME280;26950;50.960;7.138;2023-07-31T02:44:18;100183.41;;;22.36;59.33
41218;BME280;26950;50.960;7.138;2023-07-31T02:46:46;100189.41;;;22.46;59.64
41218;BME280;26950;50.960;7.138;2023-07-31T02:49:12;100185.22;;;22.01;61.46
41218;BME280;26950;50.960;7.138;2023-07-31T02:51:40;100189.34;;;22.78;58.49
41218;BME280;26950;50.960;7.138;2023-07-31T02:54:06;100191.00;;;21.47;63.37
41218;BME280;26950;50.960;7.138;2023-07-31T02:56:32;100185.97;;;22.06;60.70
41218;BME280;26950;50.960;7.138;2023-07-31T02:58:58;100178.19;;;22.64;59.39
41218;BME280;26950;50.960;7.138;2023-07-31T03:01:25;100184.47;;;21.20;62.97
41218;BME280;26950;50.960;7.138;2023-07-31T03:03:51;100174.22;;;22.46;58.61
41218;BME280;26950;50.960;7.138;2023-07-31T03:06:18;100169.09;;;21.70;61.61
41218;BME280;26950;50.960;7.138;2023-07-31T03:08:45;100165.09;;;22.84;58.73
41218;BME280;26950;50.960;7.138;2023-07-31T03:11:12;100163.44;;;23.39;56.27
41218;BME280;26950;50.960;7.138;2023-07-31T03:13:38;100163.97;;;23.23;56.51
41218;BME280;26950;50.960;7.138;2023-07-31T03:16:04;100156.47;;;23.34;55.89
41218;BME280;26950;50.960;7.138;2023-07-31T03:18:31;100158.94;;;22.82;57.87
41218;BME280;26950;50.960;7.138;2023-07-31T03:20:57;100152.25;;;22.97;57.50
41218;BME280;26950;50.960;7.138;2023-07-31T03:23:23;100150.88;;;21.86;60.81
41218;BME280;26950;50.960;7.138;2023-07-31T03:25:58;100148.66;;;22.67;58.22
41218;BME280;26950;50.960;7.138;2023-07-31T03:28:25;100148.13;;;22.54;58.81
41218;BME280;26950;50.960;7.138;2023-07-31T03:30:51;100146.47;;;22.19;60.32
41218;BME280;26950;50.960;7.138;2023-07-31T03:33:17;100141.03;;;22.84;57.00
41218;BME280;26950;50.960;7.138;2023-07-31T03:35:44;100146.72;;;22.10;59.50
41218;BME280;26950;50.960;7.138;2023-07-31T03:38:10;100137.31;;;21.60;62.24
41218;BME280;26950;50.960;7.138;2023-07-31T03:40:36;100126.78;;;23.13;56.52
41218;BME280;26950;50.960;7.138;2023-07-31T03:43:04;100125.97;;;23.38;55.80
41218;BME280;26950;50.960;7.138;2023-07-31T03:45:30;100132.72;;;21.65;61.12
41218;BME280;26950;50.960;7.138;2023-07-31T03:47:57;100142.66;;;21.21;61.68
41218;BME280;26950;50.960;7.138;2023-07-31T03:50:23;100137.22;;;21.25;62.31
41218;BME280;26950;50.960;7.138;2023-07-31T03:52:50;100141.31;;;22.44;58.75
41218;BME280;26950;50.960;7.138;2023-07-31T03:55:16;100139.19;;;23.16;56.64
41218;BME280;26950;50.960;7.138;2023-07-31T03:57:43;100143.25;;;22.39;58.48
41218;BME280;26950;50.960;7.138;2023-07-31T04:00:11;100137.31;;;23.20;56.52
41218;BME280;26950;50.960;7.138;2023-07-31T04:02:37;100141.00;;;22.55;58.39
41218;BME280;26950;50.960;7.138;2023-07-31T04:05:04;100135.69;;;22.53;59.19
41218;BME280;26950;50.960;7.138;2023-07-31T04:07:30;100126.19;;;22.11;59.74
41218;BME280;26950;50.960;7.138;2023-07-31T04:09:56;100128.63;;;21.86;60.93
41218;BME280;26950;50.960;7.138;2023-07-31T04:12:23;100129.56;;;22.79;58.81
41218;BME280;26950;50.960;7.138;2023-07-31T04:14:49;100126.09;;;22.77;58.25
41218;BME280;26950;50.960;7.138;2023-07-31T04:17:18;100126.69;;;22.26;59.52
41218;BME280;26950;50.960;7.138;2023-07-31T04:19:44;100128.84;;;22.74;58.28
41218;BME280;26950;50.960;7.138;2023-07-31T04:22:11;100119.06;;;23.31;56.67
41218;BME280;26950;50.960;7.138;2023-07-31T04:24:37;100122.91;;;22.65;58.93
41218;BME280;26950;50.960;7.138;2023-07-31T04:27:03;100116.94;;;23.42;56.28
41218;BME280;26950;50.960;7.138;2023-07-31T04:29:30;100116.78;;;24.00;54.42
41218;BME280;26950;50.960;7.138;2023-07-31T04:31:56;100115.66;;;23.54;56.12
41218;BME280;26950;50.960;7.138;2023-07-31T04:34:24;100112.44;;;23.71;55.60
41218;BME280;26950;50.960;7.138;2023-07-31T04:36:50;100116.00;;;23.43;56.04
41218;BME280;26950;50.960;7.138;2023-07-31T04:39:16;100117.91;;;22.52;58.55
41218;BME280;26950;50.960;7.138;2023-07-31T04:41:43;100114.16;;;23.45;56.73
41218;BME280;26950;50.960;7.138;2023-07-31T04:44:09;100115.72;;;23.52;56.74
41218;BME280;26950;50.960;7.138;2023-07-31T04:46:36;100117.91;;;22.52;58.92
41218;BME280;26950;50.960;7.138;2023-07-31T04:49:02;100117.31;;;22.08;62.42
41218;BME280;26950;50.960;7.138;2023-07-31T04:51:30;100124.63;;;20.93;66.72
41218;BME280;26950;50.960;7.138;2023-07-31T04:53:56;100110.22;;;21.00;67.31
41218;BME280;26950;50.960;7.138;2023-07-31T04:56:23;100110.72;;;21.89;63.46
41218;BME280;26950;50.960;7.138;2023-07-31T04:58:49;100104.31;;;21.25;66.01
41218;BME280;26950;50.960;7.138;2023-07-31T05:01:15;100111.22;;;20.56;68.78
41218;BME280;26950;50.960;7.138;2023-07-31T05:03:42;100101.06;;;22.18;63.12
41218;BME280;26950;50.960;7.138;2023-07-31T05:06:08;100103.38;;;22.30;61.17
41218;BME280;26950;50.960;7.138;2023-07-31T05:08:36;100103.56;;;22.24;62.48
41218;BME280;26950;50.960;7.138;2023-07-31T05:11:02;100093.63;;;21.96;62.89
41218;BME280;26950;50.960;7.138;2023-07-31T05:13:29;100097.13;;;22.31;61.07
41218;BME280;26950;50.960;7.138;2023-07-31T05:15:55;100085.81;;;21.89;63.06
41218;BME280;26950;50.960;7.138;2023-07-31T05:18:21;100079.47;;;21.59;63.36
41218;BME280;26950;50.960;7.138;2023-07-31T05:20:48;100081.81;;;22.36;60.93
41218;BME280;26950;50.960;7.138;2023-07-31T05:23:14;100076.78;;;21.23;63.76
41218;BME280;26950;50.960;7.138;2023-07-31T05:25:42;100072.94;;;22.03;60.97
41218;BME280;26950;50.960;7.138;2023-07-31T05:28:08;100072.69;;;22.14;60.82
41218;BME280;26950;50.960;7.138;2023-07-31T05:30:34;100071.06;;;21.74;63.13
41218;BME280;26950;50.960;7.138;2023-07-31T05:33:01;100073.44;;;21.15;64.36
41218;BME280;26950;50.960;7.138;2023-07-31T05:35:27;100080.41;;;21.90;61.65
41218;BME280;26950;50.960;7.138;2023-07-31T05:37:53;100070.69;;;20.79;65.41
41218;BME280;26950;50.960;7.138;2023-07-31T05:40:20;100064.97;;;21.69;62.78
41218;BME280;26950;50.960;7.138;2023-07-31T05:42:47;100061.03;;;20.75;65.99
41218;BME280;26950;50.960;7.138;2023-07-31T05:45:14;100060.50;;;21.35;64.15
41218;BME280;26950;50.960;7.138;2023-07-31T05:47:40;100046.81;;;21.12;65.19
41218;BME280;26950;50.960;7.138;2023-07-31T05:50:06;100042.66;;;20.19;68.52
41218;BME280;26950;50.960;7.138;2023-07-31T05:52:33;100038.81;;;21.12;66.24
41218;BME280;26950;50.960;7.138;2023-07-31T05:54:59;100039.38;;;20.50;66.50
41218;BME280;26950;50.960;7.138;2023-07-31T05:57:26;100030.06;;;21.42;63.89
41218;BME280;26950;50.960;7.138;2023-07-31T05:59:54;100024.16;;;20.92;66.25
41218;BME280;26950;50.960;7.138;2023-07-31T06:02:20;100021.59;;;21.25;64.40
41218;BME280;26950;50.960;7.138;2023-07-31T06:04:46;100025.97;;;20.53;67.85
41218;BME280;26950;50.960;7.138;2023-07-31T06:07:13;100024.19;;;20.91;66.11
41218;BME280;26950;50.960;7.138;2023-07-31T06:09:39;100020.25;;;21.44;64.07
41218;BME280;26950;50.960;7.138;2023-07-31T06:12:05;100035.13;;;21.86;62.83
41218;BME280;26950;50.960;7.138;2023-07-31T06:14:32;100040.03;;;21.70;63.03
41218;BME280;26950;50.960;7.138;2023-07-31T06:16:59;100040.56;;;21.48;64.75
41218;BME280;26950;50.960;7.138;2023-07-31T06:19:26;100044.94;;;20.36;68.83
41218;BME280;26950;50.960;7.138;2023-07-31T06:21:52;100049.59;;;21.44;66.19
41218;BME280;26950;50.960;7.138;2023-07-31T06:24:18;100055.31;;;20.52;69.22
41218;BME280;26950;50.960;7.138;2023-07-31T06:26:45;100052.56;;;20.95;68.49
41218;BME280;26950;50.960;7.138;2023-07-31T06:29:12;100051.56;;;20.17;72.08
41218;BME280;26950;50.960;7.138;2023-07-31T06:31:38;100047.47;;;19.51;74.47
41218;BME280;26950;50.960;7.138;2023-07-31T06:34:06;100055.03;;;19.77;74.50
41218;BME280;26950;50.960;7.138;2023-07-31T06:36:32;100041.91;;;19.66;75.08
41218;BME280;26950;50.960;7.138;2023-07-31T06:38:58;100037.91;;;19.43;76.78
41218;BME280;26950;50.960;7.138;2023-07-31T06:41:24;100040.47;;;19.46;77.49
41218;BME280;26950;50.960;7.138;2023-07-31T06:43:51;100036.28;;;19.32;79.00
41218;BME280;26950;50.960;7.138;2023-07-31T06:46:17;100032.63;;;20.72;73.14
41218;BME280;26950;50.960;7.138;2023-07-31T06:48:44;100034.53;;;21.05;71.83
41218;BME280;26950;50.960;7.138;2023-07-31T06:51:11;100034.09;;;21.23;69.87
41218;BME280;26950;50.960;7.138;2023-07-31T06:53:38;100029.00;;;20.77;71.99
41218;BME280;26950;50.960;7.138;2023-07-31T06:56:04;100036.41;;;19.76;76.12
41218;BME280;26950;50.960;7.138;2023-07-31T06:58:30;100032.72;;;19.83;76.65
41218;BME280;26950;50.960;7.138;2023-07-31T07:00:56;100020.97;;;20.36;74.86
41218;BME280;26950;50.960;7.138;2023-07-31T07:03:23;100023.56;;;20.39;73.32
41218;BME280;26950;50.960;7.138;2023-07-31T07:05:49;100031.69;;;20.33;75.22
41218;BME280;26950;50.960;7.138;2023-07-31T07:08:17;100028.41;;;21.01;71.14
41218;BME280;26950;50.960;7.138;2023-07-31T07:10:43;100020.28;;;21.06;71.54
41218;BME280;26950;50.960;7.138;2023-07-31T07:13:09;100020.88;;;20.41;75.31
41218;BME280;26950;50.960;7.138;2023-07-31T07:15:37;100025.56;;;20.71;74.47
41218;BME280;26950;50.960;7.138;2023-07-31T07:18:03;100009.94;;;21.29;71.39
41218;BME280;26950;50.960;7.138;2023-07-31T07:20:30;100013.19;;;20.69;73.44
41218;BME280;26950;50.960;7.138;2023-07-31T07:22:56;100008.00;;;20.63;74.58
41218;BME280;26950;50.960;7.138;2023-07-31T07:25:24;100016.63;;;20.72;73.25
41218;BME280;26950;50.960;7.138;2023-07-31T07:27:50;99999.28;;;20.93;73.53
41218;BME280;26950;50.960;7.138;2023-07-31T07:30:17;100006.47;;;21.24;72.46
41218;BME280;26950;50.960;7.138;2023-07-31T07:32:44;100003.97;;;20.82;73.18
41218;BME280;26950;50.960;7.138;2023-07-31T07:35:11;100008.94;;;20.97;72.83
41218;BME280;26950;50.960;7.138;2023-07-31T07:37:37;100009.75;;;22.33;68.40
41218;BME280;26950;50.960;7.138;2023-07-31T07:40:04;100012.16;;;21.10;73.06
41218;BME280;26950;50.960;7.138;2023-07-31T07:42:32;100019.91;;;21.57;71.67
41218;BME280;26950;50.960;7.138;2023-07-31T07:44:58;100018.91;;;20.89;74.78
41218;BME280;26950;50.960;7.138;2023-07-31T07:47:24;100030.16;;;20.65;75.63
41218;BME280;26950;50.960;7.138;2023-07-31T07:49:51;100018.06;;;20.07;78.15
41218;BME280;26950;50.960;7.138;2023-07-31T07:52:17;100010.81;;;20.94;74.83
41218;BME280;26950;50.960;7.138;2023-07-31T07:54:43;100009.94;;;20.92;75.29
41218;BME280;26950;50.960;7.138;2023-07-31T07:57:10;100009.13;;;20.90;74.39
41218;BME280;26950;50.960;7.138;2023-07-31T07:59:37;100016.59;;;21.47;71.33
41218;BME280;26950;50.960;7.138;2023-07-31T08:02:03;100011.56;;;20.62;75.74
41218;BME280;26950;50.960;7.138;2023-07-31T08:04:30;100021.88;;;21.50;71.46
41218;BME280;26950;50.960;7.138;2023-07-31T08:06:56;100025.81;;;21.68;70.58
41218;BME280;26950;50.960;7.138;2023-07-31T08:09:22;100025.06;;;22.28;68.58
41218;BME280;26950;50.960;7.138;2023-07-31T08:11:49;100020.84;;;21.54;71.08
41218;BME280;26950;50.960;7.138;2023-07-31T08:14:15;100013.91;;;22.71;67.50
41218;BME280;26950;50.960;7.138;2023-07-31T08:16:43;100020.28;;;22.39;68.77
41218;BME280;26950;50.960;7.138;2023-07-31T08:19:09;100034.50;;;22.08;69.65
41218;BME280;26950;50.960;7.138;2023-07-31T08:21:35;100036.44;;;20.62;74.70
41218;BME280;26950;50.960;7.138;2023-07-31T08:24:02;100024.75;;;20.26;77.92
41218;BME280;26950;50.960;7.138;2023-07-31T08:26:29;100019.34;;;20.31;78.56
41218;BME280;26950;50.960;7.138;2023-07-31T08:28:55;100019.34;;;20.71;76.33
41218;BME280;26950;50.960;7.138;2023-07-31T08:31:22;100010.06;;;20.50;77.93
41218;BME280;26950;50.960;7.138;2023-07-31T08:33:50;100006.41;;;20.11;79.80
41218;BME280;26950;50.960;7.138;2023-07-31T08:36:16;100003.88;;;20.85;77.78
41218;BME280;26950;50.960;7.138;2023-07-31T08:38:42;99999.44;;;21.57;73.57
41218;BME280;26950;50.960;7.138;2023-07-31T08:41:09;99985.84;;;22.28;70.61
41218;BME280;26950;50.960;7.138;2023-07-31T08:43:35;99994.09;;;20.07;79.80
41218;BME280;26950;50.960;7.138;2023-07-31T08:46:02;99986.16;;;20.45;79.53
41218;BME280;26950;50.960;7.138;2023-07-31T08:48:28;99983.84;;;21.73;74.11
41218;BME280;26950;50.960;7.138;2023-07-31T08:50:56;99976.72;;;21.73;73.22
41218;BME280;26950;50.960;7.138;2023-07-31T08:53:23;99974.25;;;21.66;72.43
41218;BME280;26950;50.960;7.138;2023-07-31T08:55:50;99966.41;;;20.56;76.84
41218;BME280;26950;50.960;7.138;2023-07-31T08:58:18;99975.03;;;20.65;76.88
41218;BME280;26950;50.960;7.138;2023-07-31T09:00:45;99976.34;;;20.47;77.70
41218;BME280;26950;50.960;7.138;2023-07-31T09:03:13;99979.63;;;20.18;78.18
41218;BME280;26950;50.960;7.138;2023-07-31T09:05:41;99985.69;;;19.83;80.95
41218;BME280;26950;50.960;7.138;2023-07-31T09:08:09;99987.50;;;19.80;80.29
41218;BME280;26950;50.960;7.138;2023-07-31T09:10:37;99984.69;;;19.43;82.18
41218;BME280;26950;50.960;7.138;2023-07-31T09:13:06;99978.84;;;19.70;82.18
41218;BME280;26950;50.960;7.138;2023-07-31T09:15:32;99981.16;;;19.88;81.00
41218;BME280;26950;50.960;7.138;2023-07-31T09:18:00;99990.03;;;19.87;80.61
41218;BME280;26950;50.960;7.138;2023-07-31T09:20:26;99980.31;;;20.68;76.44
41218;BME280;26950;50.960;7.138;2023-07-31T09:22:53;99989.16;;;20.30;78.09
41218;BME280;26950;50.960;7.138;2023-07-31T09:25:21;99987.72;;;20.56;78.59
41218;BME280;26950;50.960;7.138;2023-07-31T09:27:48;99995.50;;;20.25;80.99
41218;BME280;26950;50.960;7.138;2023-07-31T09:30:15;99997.31;;;20.63;76.28
41218;BME280;26950;50.960;7.138;2023-07-31T09:32:42;99997.66;;;20.49;75.73
41218;BME280;26950;50.960;7.138;2023-07-31T09:35:18;99990.34;;;21.64;70.64
41218;BME280;26950;50.960;7.138;2023-07-31T09:37:47;99979.66;;;21.30;72.95
41218;BME280;26950;50.960;7.138;2023-07-31T09:40:16;99982.59;;;20.03;77.68
41218;BME280;26950;50.960;7.138;2023-07-31T09:42:52;99967.06;;;20.25;76.97
41218;BME280;26950;50.960;7.138;2023-07-31T09:45:18;99974.69;;;20.79;74.49
41218;BME280;26950;50.960;7.138;2023-07-31T09:47:46;99968.84;;;20.25;78.05
41218;BME280;26950;50.960;7.138;2023-07-31T09:50:12;99960.81;;;21.38;74.47
41218;BME280;26950;50.960;7.138;2023-07-31T09:52:40;99951.03;;;21.99;70.56
41218;BME280;26950;50.960;7.138;2023-07-31T09:55:06;99954.59;;;21.99;71.13
41218;BME280;26950;50.960;7.138;2023-07-31T09:57:33;99953.31;;;20.82;77.13
41218;BME280;26950;50.960;7.138;2023-07-31T10:00:01;99950.19;;;21.00;76.95
41218;BME280;26950;50.960;7.138;2023-07-31T10:02:27;99948.38;;;21.01;76.03
41218;BME280;26950;50.960;7.138;2023-07-31T10:04:54;99951.25;;;20.93;76.40
41218;BME280;26950;50.960;7.138;2023-07-31T10:07:23;99945.19;;;20.09;79.77
41218;BME280;26950;50.960;7.138;2023-07-31T10:09:51;99937.41;;;21.13;76.56
41218;BME280;26950;50.960;7.138;2023-07-31T10:12:19;99937.84;;;21.31;75.61
41218;BME280;26950;50.960;7.138;2023-07-31T10:14:45;99931.31;;;22.34;69.93
41218;BME280;26950;50.960;7.138;2023-07-31T10:17:13;99934.50;;;20.88;76.40
41218;BME280;26950;50.960;7.138;2023-07-31T10:19:39;99920.31;;;22.43;70.65
41218;BME280;26950;50.960;7.138;2023-07-31T10:22:06;99932.06;;;21.47;74.02
41218;BME280;26950;50.960;7.138;2023-07-31T10:24:34;99923.47;;;21.98;71.72
41218;BME280;26950;50.960;7.138;2023-07-31T10:27:01;99921.78;;;23.08;68.06
41218;BME280;26950;50.960;7.138;2023-07-31T10:29:28;99924.66;;;23.02;67.84
41218;BME280;26950;50.960;7.138;2023-07-31T10:31:55;99933.09;;;21.42;74.37
41218;BME280;26950;50.960;7.138;2023-07-31T10:34:23;99925.50;;;21.59;75.37
41218;BME280;26950;50.960;7.138;2023-07-31T10:36:49;99913.69;;;22.55;71.35
41218;BME280;26950;50.960;7.138;2023-07-31T10:39:33;99920.84;;;22.54;71.41
41218;BME280;26950;50.960;7.138;2023-07-31T10:41:59;99911.69;;;23.41;66.69
41218;BME280;26950;50.960;7.138;2023-07-31T10:44:25;99920.69;;;22.87;68.75
41218;BME280;26950;50.960;7.138;2023-07-31T10:46:54;99909.06;;;23.64;65.79
41218;BME280;26950;50.960;7.138;2023-07-31T10:49:21;99921.91;;;22.50;70.51
41218;BME280;26950;50.960;7.138;2023-07-31T10:51:48;99913.88;;;22.50;69.78
41218;BME280;26950;50.960;7.138;2023-07-31T10:54:15;99928.28;;;21.56;72.49
41218;BME280;26950;50.960;7.138;2023-07-31T10:56:44;99919.19;;;22.22;71.57
41218;BME280;26950;50.960;7.138;2023-07-31T10:59:10;99917.03;;;22.63;69.30
41218;BME280;26950;50.960;7.138;2023-07-31T11:01:51;99916.59;;;21.90;71.43
41218;BME280;26950;50.960;7.138;2023-07-31T11:04:21;99918.69;;;21.15;75.79
41218;BME280;26950;50.960;7.138;2023-07-31T11:06:56;99921.59;;;21.71;73.98
41218;BME280;26950;50.960;7.138;2023-07-31T11:09:24;99924.34;;;21.02;77.47
41218;BME280;26950;50.960;7.138;2023-07-31T11:11:50;99923.00;;;20.85;78.40
41218;BME280;26950;50.960;7.138;2023-07-31T11:14:17;99920.50;;;20.79;79.73
41218;BME280;26950;50.960;7.138;2023-07-31T11:16:43;99928.00;;;20.63;80.56
41218;BME280;26950;50.960;7.138;2023-07-31T11:19:10;99937.50;;;21.44;77.90
41218;BME280;26950;50.960;7.138;2023-07-31T11:21:36;99930.34;;;20.77;79.80
41218;BME280;26950;50.960;7.138;2023-07-31T11:24:04;99936.41;;;20.46;79.36
41218;BME280;26950;50.960;7.138;2023-07-31T11:26:30;99938.44;;;21.08;78.99
41218;BME280;26950;50.960;7.138;2023-07-31T11:28:56;99936.34;;;20.47;80.07
41218;BME280;26950;50.960;7.138;2023-07-31T11:31:23;99936.69;;;22.03;71.81
41218;BME280;26950;50.960;7.138;2023-07-31T11:33:49;99933.56;;;21.58;74.50
41218;BME280;26950;50.960;7.138;2023-07-31T11:36:16;99933.56;;;21.58;75.10
41218;BME280;26950;50.960;7.138;2023-07-31T11:38:43;99930.13;;;21.52;73.81
41218;BME280;26950;50.960;7.138;2023-07-31T11:41:13;99923.94;;;20.84;76.65
41218;BME280;26950;50.960;7.138;2023-07-31T11:43:39;99923.34;;;21.07;75.96
41218;BME280;26950;50.960;7.138;2023-07-31T11:46:06;99905.81;;;21.93;72.01
41218;BME280;26950;50.960;7.138;2023-07-31T11:48:33;99885.63;;;22.96;68.57
41218;BME280;26950;50.960;7.138;2023-07-31T11:51:01;99889.47;;;23.12;68.08
41218;BME280;26950;50.960;7.138;2023-07-31T11:53:28;99898.03;;;21.21;76.65
41218;BME280;26950;50.960;7.138;2023-07-31T11:55:57;99894.81;;;20.76;79.65
41218;BME280;26950;50.960;7.138;2023-07-31T11:58:25;99895.00;;;22.27;73.79
41218;BME280;26950;50.960;7.138;2023-07-31T12:00:52;99892.88;;;21.48;77.67
41218;BME280;26950;50.960;7.138;2023-07-31T12:03:19;99891.44;;;21.36;77.05
41218;BME280;26950;50.960;7.138;2023-07-31T12:05:46;99891.69;;;22.73;72.79
41218;BME280;26950;50.960;7.138;2023-07-31T12:08:13;99879.22;;;23.25;70.02
41218;BME280;26950;50.960;7.138;2023-07-31T12:10:41;99882.31;;;23.13;69.72
41218;BME280;26950;50.960;7.138;2023-07-31T12:13:08;99877.53;;;22.98;69.70
41218;BME280;26950;50.960;7.138;2023-07-31T12:15:40;99881.56;;;22.56;71.41
41218;BME280;26950;50.960;7.138;2023-07-31T12:18:08;99879.91;;;21.96;73.15
41218;BME280;26950;50.960;7.138;2023-07-31T12:20:34;99877.59;;;21.84;74.27
41218;BME280;26950;50.960;7.138;2023-07-31T12:23:01;99883.84;;;21.53;73.43
41218;BME280;26950;50.960;7.138;2023-07-31T12:25:31;99864.53;;;22.32;69.13
41218;BME280;26950;50.960;7.138;2023-07-31T12:27:58;99871.38;;;22.68;67.11
41218;BME280;26950;50.960;7.138;2023-07-31T12:30:27;99865.16;;;23.20;64.88
41218;BME280;26950;50.960;7.138;2023-07-31T12:32:55;99867.91;;;23.17;64.45
41218;BME280;26950;50.960;7.138;2023-07-31T12:35:21;99870.97;;;23.31;64.18
41218;BME280;26950;50.960;7.138;2023-07-31T12:37:48;99872.63;;;22.84;66.47
41218;BME280;26950;50.960;7.138;2023-07-31T12:40:14;99874.03;;;22.96;65.54
41218;BME280;26950;50.960;7.138;2023-07-31T12:42:41;99862.75;;;22.59;66.65
41218;BME280;26950;50.960;7.138;2023-07-31T12:45:07;99867.22;;;22.85;65.42
41218;BME280;26950;50.960;7.138;2023-07-31T12:47:33;99871.31;;;21.85;70.33
41218;BME280;26950;50.960;7.138;2023-07-31T12:50:01;99870.13;;;21.95;68.85